createdAt,value
2023-04-15T00:00:34.195Z,100672.63
2023-04-15T00:02:16.765Z,100670.94
2023-04-15T00:03:50.869Z,100669.19
2023-04-15T00:05:22.860Z,100670.97
2023-04-15T00:06:55.047Z,100670.97
2023-04-15T00:08:27.030Z,100665.78
2023-04-15T00:09:59.444Z,100673.59
2023-04-15T00:11:31.569Z,100672.75
2023-04-15T00:13:04.674Z,100667.53
2023-04-15T00:14:37.284Z,100668.41
2023-04-15T00:16:10.338Z,100667.53
2023-04-15T00:17:42.369Z,100670.16
2023-04-15T00:19:14.420Z,100675.41
2023-04-15T00:20:46.453Z,100667.53
2023-04-15T00:22:18.601Z,100665.81
2023-04-15T00:23:52.932Z,100678.03
2023-04-15T00:25:24.832Z,100661.53
2023-04-15T00:26:56.770Z,100668.50
2023-04-15T00:28:28.987Z,100668.47
2023-04-15T00:30:01.002Z,100666.75
2023-04-15T00:31:33.182Z,100664.19
2023-04-15T00:33:05.576Z,100669.41
2023-04-15T00:34:37.527Z,100665.94
2023-04-15T00:36:10.182Z,100667.69
2023-04-15T00:37:44.852Z,100664.22
2023-04-15T00:39:18.125Z,100667.69
2023-04-15T00:40:50.274Z,100675.53
2023-04-15T00:42:22.204Z,100672.94
2023-04-15T00:43:54.580Z,100668.59
2023-04-15T00:45:26.835Z,100659.91
2023-04-15T00:47:02.674Z,100662.53
2023-04-15T00:48:34.539Z,100667.75
2023-04-15T00:50:07.199Z,100665.16
2023-04-15T00:51:39.156Z,100667.75
2023-04-15T00:53:12.606Z,100671.22
2023-04-15T00:54:44.493Z,100673.00
2023-04-15T00:56:16.569Z,100668.66
2023-04-15T00:57:48.861Z,100666.03
2023-04-15T00:59:20.879Z,100677.34
2023-04-15T01:00:54.642Z,100670.41
2023-04-15T01:02:27.469Z,100667.81
2023-04-15T01:03:59.804Z,100676.50
2023-04-15T01:05:32.504Z,100672.16
2023-04-15T01:07:05.475Z,100670.44
2023-04-15T01:08:37.385Z,100671.31
2023-04-15T01:10:09.766Z,100669.56
2023-04-15T01:11:41.803Z,100672.19
2023-04-15T01:13:13.900Z,100671.31
2023-04-15T01:14:45.985Z,100672.19
2023-04-15T01:16:19.243Z,100672.19
2023-04-15T01:17:51.356Z,100680.00
2023-04-15T01:19:23.567Z,100680.00
2023-04-15T01:20:55.637Z,100680.00
2023-04-15T01:22:29.392Z,100678.25
2023-04-15T01:24:01.712Z,100676.50
2023-04-15T01:25:34.386Z,100675.63
2023-04-15T01:27:06.570Z,100680.84
2023-04-15T01:28:39.250Z,100673.91
2023-04-15T01:30:11.841Z,100675.66
2023-04-15T01:31:54.142Z,100675.66
2023-04-15T01:33:26.069Z,100670.44
2023-04-15T01:34:58.064Z,100673.03
2023-04-15T01:36:30.478Z,100674.78
2023-04-15T01:38:07.743Z,100680.84
2023-04-15T01:39:39.779Z,100689.53
2023-04-15T01:41:11.894Z,100686.94
2023-04-15T01:42:43.880Z,100686.06
2023-04-15T01:44:16.009Z,100678.25
2023-04-15T01:45:48.119Z,100680.84
2023-04-15T01:47:20.048Z,100676.50
2023-04-15T01:48:52.981Z,100673.03
2023-04-15T01:50:25.247Z,100677.38
2023-04-15T01:51:57.156Z,100677.38
2023-04-15T01:53:29.680Z,100681.72
2023-04-15T01:55:02.199Z,100679.13
2023-04-15T01:56:34.202Z,100681.72
2023-04-15T01:58:06.395Z,100670.44
2023-04-15T01:59:38.568Z,100682.59
2023-04-15T02:01:11.614Z,100682.59
2023-04-15T02:02:43.939Z,100677.38
2023-04-15T02:04:18.937Z,100692.16
2023-04-15T02:05:51.411Z,100674.78
2023-04-15T02:07:24.187Z,100678.25
2023-04-15T02:08:56.126Z,100667.84
2023-04-15T02:10:28.067Z,100665.22
2023-04-15T02:12:01.023Z,100677.38
2023-04-15T02:13:33.927Z,100673.06
2023-04-15T02:15:06.464Z,100677.38
2023-04-15T02:16:38.554Z,100673.91
2023-04-15T02:18:10.620Z,100679.13
2023-04-15T02:19:42.581Z,100678.25
2023-04-15T02:21:14.685Z,100681.72
2023-04-15T02:22:47.425Z,100681.72
2023-04-15T02:24:20.520Z,100689.53
2023-04-15T02:25:53.580Z,100688.69
2023-04-15T02:27:25.953Z,100685.19
2023-04-15T02:28:57.900Z,100681.72
2023-04-15T02:30:29.849Z,100683.47
2023-04-15T02:32:01.948Z,100691.28
2023-04-15T02:33:34.228Z,100686.06
2023-04-15T02:35:07.898Z,100690.41
2023-04-15T02:36:41.010Z,100686.06
2023-04-15T02:38:14.505Z,100681.72
2023-04-15T02:39:47.024Z,100692.16
2023-04-15T02:41:20.628Z,100695.59
2023-04-15T02:42:52.543Z,100699.94
2023-04-15T02:44:25.262Z,100699.88
2023-04-15T02:46:01.768Z,100706.03
2023-04-15T02:47:34.698Z,100700.75
2023-04-15T02:49:06.785Z,100712.03
2023-04-15T02:50:41.675Z,100705.94
2023-04-15T02:52:33.606Z,100712.03
2023-04-15T02:54:05.565Z,100707.66
2023-04-15T02:55:37.465Z,100710.28
2023-04-15T02:57:09.310Z,100710.25
2023-04-15T02:58:42.123Z,100712.00
2023-04-15T03:00:14.437Z,100711.13
2023-04-15T03:01:48.608Z,100712.84
2023-04-15T03:03:21.153Z,100705.03
2023-04-15T03:04:53.063Z,100711.13
2023-04-15T03:06:25.129Z,100711.97
2023-04-15T03:07:57.114Z,100706.78
2023-04-15T03:09:29.022Z,100711.09
2023-04-15T03:11:02.911Z,100710.25
2023-04-15T03:12:34.955Z,100712.84
2023-04-15T03:14:07.420Z,100703.28
2023-04-15T03:15:42.332Z,100714.56
2023-04-15T03:17:14.817Z,100722.38
2023-04-15T03:18:47.396Z,100712.84
2023-04-15T03:20:19.948Z,100716.31
2023-04-15T03:21:53.285Z,100708.50
2023-04-15T03:23:25.724Z,100711.97
2023-04-15T03:24:58.111Z,100717.16
2023-04-15T03:26:31.245Z,100714.56
2023-04-15T03:28:11.220Z,100724.97
2023-04-15T03:29:43.149Z,100716.31
2023-04-15T03:31:15.277Z,100713.69
2023-04-15T03:32:47.264Z,100712.81
2023-04-15T03:34:19.375Z,100721.50
2023-04-15T03:35:52.232Z,100730.16
2023-04-15T03:37:24.044Z,100726.69
2023-04-15T03:38:57.004Z,100727.56
2023-04-15T03:40:28.826Z,100736.25
2023-04-15T03:42:01.943Z,100731.03
2023-04-15T03:43:33.797Z,100732.75
2023-04-15T03:45:06.247Z,100737.97
2023-04-15T03:46:38.216Z,100727.53
2023-04-15T03:48:16.602Z,100744.03
2023-04-15T03:49:49.890Z,100737.97
2023-04-15T03:51:21.852Z,100735.34
2023-04-15T03:52:53.803Z,100741.44
2023-04-15T03:54:25.872Z,100749.22
2023-04-15T03:55:57.788Z,100739.69
2023-04-15T03:57:29.825Z,100744.03
2023-04-15T03:59:02.007Z,100750.97
2023-04-15T04:00:34.420Z,100751.81
2023-04-15T04:02:06.319Z,100744.03
2023-04-15T04:03:38.328Z,100744.91
2023-04-15T04:05:10.878Z,100744.88
2023-04-15T04:06:42.966Z,100753.53
2023-04-15T04:08:16.535Z,100752.66
2023-04-15T04:09:48.422Z,100750.94
2023-04-15T04:11:21.364Z,100757.88
2023-04-15T04:12:53.155Z,100763.09
2023-04-15T04:14:29.735Z,100750.06
2023-04-15T04:16:02.109Z,100766.53
2023-04-15T04:17:34.564Z,100769.16
2023-04-15T04:19:06.591Z,100771.75
2023-04-15T04:20:38.653Z,100775.19
2023-04-15T04:22:10.804Z,100775.19
2023-04-15T04:23:42.897Z,100778.66
2023-04-15T04:25:14.876Z,100775.16
2023-04-15T04:26:46.793Z,100776.06
2023-04-15T04:28:18.733Z,100784.69
2023-04-15T04:29:50.950Z,100782.09
2023-04-15T04:31:22.861Z,100778.59
2023-04-15T04:32:54.830Z,100795.97
2023-04-15T04:34:26.908Z,100792.50
2023-04-15T04:35:58.828Z,100802.03
2023-04-15T04:37:30.768Z,100795.94
2023-04-15T04:39:02.924Z,100800.28
2023-04-15T04:40:35.056Z,100806.34
2023-04-15T04:42:07.329Z,100803.72
2023-04-15T04:43:39.175Z,100797.66
2023-04-15T04:45:11.482Z,100803.75
2023-04-15T04:46:43.333Z,100805.47
2023-04-15T04:48:15.246Z,100803.72
2023-04-15T04:49:47.212Z,100809.78
2023-04-15T04:51:19.096Z,100821.91
2023-04-15T04:52:50.979Z,100815.00
2023-04-15T04:54:22.911Z,100817.56
2023-04-15T04:55:54.771Z,100822.78
2023-04-15T04:57:26.804Z,100821.06
2023-04-15T04:58:58.740Z,100814.97
2023-04-15T05:00:30.757Z,100819.31
2023-04-15T05:02:03.608Z,100832.34
2023-04-15T05:03:36.060Z,100829.72
2023-04-15T05:05:08.978Z,100835.78
2023-04-15T05:06:41.028Z,100834.91
2023-04-15T05:08:12.946Z,100836.63
2023-04-15T05:09:44.820Z,100835.75
2023-04-15T05:11:16.816Z,100835.75
2023-04-15T05:12:48.669Z,100838.31
2023-04-15T05:14:22.241Z,100850.50
2023-04-15T05:15:55.195Z,100842.72
2023-04-15T05:17:27.645Z,100851.38
2023-04-15T05:18:59.831Z,100848.78
2023-04-15T05:20:31.790Z,100843.59
2023-04-15T05:22:03.691Z,100845.31
2023-04-15T05:23:35.683Z,100854.84
2023-04-15T05:25:07.968Z,100853.13
2023-04-15T05:26:39.940Z,100855.72
2023-04-15T05:28:12.699Z,100854.88
2023-04-15T05:29:44.662Z,100852.25
2023-04-15T05:31:16.909Z,100845.34
2023-04-15T05:32:48.999Z,100854.00
2023-04-15T05:34:20.895Z,100857.50
2023-04-15T05:35:52.786Z,100851.44
2023-04-15T05:37:24.674Z,100854.03
2023-04-15T05:38:56.667Z,100859.22
2023-04-15T05:40:28.676Z,100854.91
2023-04-15T05:42:01.046Z,100861.00
2023-04-15T05:43:32.922Z,100867.13
2023-04-15T05:45:05.770Z,100867.13
2023-04-15T05:46:37.683Z,100868.91
2023-04-15T05:48:09.608Z,100874.13
2023-04-15T05:49:41.546Z,100867.16
2023-04-15T05:51:13.478Z,100866.31
2023-04-15T05:52:46.347Z,100879.38
2023-04-15T05:54:20.291Z,100885.44
2023-04-15T05:55:52.455Z,100888.06
2023-04-15T05:57:24.349Z,100880.28
2023-04-15T05:58:56.824Z,100881.16
2023-04-15T06:00:29.077Z,100894.19
2023-04-15T06:02:01.185Z,100887.22
2023-04-15T06:03:33.962Z,100895.06
2023-04-15T06:05:10.059Z,100895.09
2023-04-15T06:06:42.342Z,100899.44
2023-04-15T06:08:14.501Z,100905.50
2023-04-15T06:09:46.475Z,100906.41
2023-04-15T06:11:18.369Z,100902.03
2023-04-15T06:12:50.300Z,100915.97
2023-04-15T06:14:22.296Z,100912.50
2023-04-15T06:15:54.416Z,100915.97
2023-04-15T06:17:26.388Z,100917.81
2023-04-15T06:18:58.278Z,100919.56
2023-04-15T06:20:30.261Z,100921.31
2023-04-15T06:22:02.477Z,100928.28
2023-04-15T06:23:37.377Z,100935.22
2023-04-15T06:25:09.664Z,100931.75
2023-04-15T06:26:41.864Z,100938.72
2023-04-15T06:28:13.970Z,100934.38
2023-04-15T06:29:46.021Z,100937.03
2023-04-15T06:31:17.996Z,100945.72
2023-04-15T06:32:50.106Z,100937.03
2023-04-15T06:34:22.106Z,100948.34
2023-04-15T06:35:54.004Z,100947.47
2023-04-15T06:37:26.227Z,100944.00
2023-04-15T06:38:58.230Z,100950.97
2023-04-15T06:40:30.163Z,100952.72
2023-04-15T06:42:02.275Z,100951.00
2023-04-15T06:43:34.227Z,100953.59
2023-04-15T06:45:07.010Z,100951.03
2023-04-15T06:46:38.919Z,100957.13
2023-04-15T06:48:10.849Z,100960.59
2023-04-15T06:49:43.505Z,100973.66
2023-04-15T06:51:15.397Z,100966.69
2023-04-15T06:52:47.353Z,100973.66
2023-04-15T06:54:19.285Z,100971.06
2023-04-15T06:55:51.252Z,100975.41
2023-04-15T06:57:23.205Z,100982.38
2023-04-15T06:58:55.297Z,100985.84
2023-04-15T07:00:28.514Z,100984.13
2023-04-15T07:02:00.913Z,100990.22
2023-04-15T07:03:33.082Z,100981.50
2023-04-15T07:05:06.785Z,100997.16
2023-04-15T07:06:39.055Z,100991.09
2023-04-15T07:08:10.976Z,100991.09
2023-04-15T07:09:43.075Z,100993.72
2023-04-15T07:11:15.352Z,100994.59
2023-04-15T07:12:48.510Z,101001.56
2023-04-15T07:14:20.430Z,100999.81
2023-04-15T07:15:52.324Z,101003.31
2023-04-15T07:17:24.307Z,101007.66
2023-04-15T07:18:56.394Z,101012.06
2023-04-15T07:20:28.401Z,101015.53
2023-04-15T07:22:00.805Z,101010.31
2023-04-15T07:23:32.964Z,101017.28
2023-04-15T07:25:05.273Z,101012.91
2023-04-15T07:26:37.294Z,101015.53
2023-04-15T07:28:09.171Z,101012.06
2023-04-15T07:29:41.635Z,101020.78
2023-04-15T07:31:14.060Z,101027.72
2023-04-15T07:32:46.885Z,101020.78
2023-04-15T07:34:20.169Z,101029.47
2023-04-15T07:35:52.097Z,101033.84
2023-04-15T07:37:24.435Z,101039.94
2023-04-15T07:38:56.383Z,101035.59
2023-04-15T07:40:28.518Z,101036.47
2023-04-15T07:42:00.590Z,101039.94
2023-04-15T07:43:32.900Z,101051.25
2023-04-15T07:45:05.175Z,101038.19
2023-04-15T07:46:38.615Z,101046.94
2023-04-15T07:48:11.196Z,101039.97
2023-04-15T07:49:43.770Z,101048.69
2023-04-15T07:51:15.641Z,101053.03
2023-04-15T07:52:49.296Z,101057.41
2023-04-15T07:54:21.181Z,101064.34
2023-04-15T07:55:53.131Z,101058.25
2023-04-15T07:57:25.054Z,101068.72
2023-04-15T07:58:56.932Z,101067.00
2023-04-15T08:00:29.002Z,101062.66
2023-04-15T08:02:01.028Z,101072.22
2023-04-15T08:03:33.386Z,101073.09
2023-04-15T08:05:05.913Z,101061.78
2023-04-15T08:06:40.166Z,101074.81
2023-04-15T08:08:12.148Z,101070.47
2023-04-15T08:09:44.101Z,101066.97
2023-04-15T08:11:16.385Z,101076.56
2023-04-15T08:12:49.793Z,101077.41
2023-04-15T08:14:21.905Z,101069.56
2023-04-15T08:16:16.951Z,101072.16
2023-04-15T08:17:48.999Z,101073.00
2023-04-15T08:19:21.474Z,101079.13
2023-04-15T08:20:53.388Z,101082.59
2023-04-15T08:22:25.691Z,101080.84
2023-04-15T08:23:57.644Z,101082.56
2023-04-15T08:25:31.066Z,101089.53
2023-04-15T08:27:04.941Z,101086.91
2023-04-15T08:28:39.739Z,101080.78
2023-04-15T08:30:12.118Z,101090.34
2023-04-15T08:31:45.105Z,101085.09
2023-04-15T08:33:17.062Z,101085.91
2023-04-15T08:34:49.210Z,101079.81
2023-04-15T08:36:21.152Z,101085.00
2023-04-15T08:37:53.088Z,101087.56
2023-04-15T08:39:24.992Z,101084.84
2023-04-15T08:40:58.964Z,101082.13
2023-04-15T08:42:45.983Z,101090.75
2023-04-15T08:44:18.491Z,101088.03
2023-04-15T08:45:52.427Z,101088.78
2023-04-15T08:47:27.562Z,101091.44
2023-04-15T08:48:59.863Z,101090.53
2023-04-15T08:50:32.774Z,101093.13
2023-04-15T08:52:05.026Z,101097.53
2023-04-15T08:53:37.574Z,101096.66
2023-04-15T08:55:09.943Z,101097.50
2023-04-15T08:56:42.824Z,101100.94
2023-04-15T08:58:16.405Z,101105.38
2023-04-15T08:59:48.627Z,101103.63
2023-04-15T09:01:21.389Z,101104.56
2023-04-15T09:02:54.139Z,101105.47
2023-04-15T09:04:26.593Z,101115.94
2023-04-15T09:05:59.003Z,101110.59
2023-04-15T09:07:31.125Z,101112.34
2023-04-15T09:09:03.384Z,101111.44
2023-04-15T09:10:35.852Z,101111.41
2023-04-15T09:12:09.213Z,101114.78
2023-04-15T09:13:41.492Z,101123.50
2023-04-15T09:15:13.977Z,101115.63
2023-04-15T09:16:59.561Z,101127.78
2023-04-15T09:18:38.776Z,101128.66
2023-04-15T09:20:15.597Z,101122.53
2023-04-15T09:21:48.438Z,101124.22
2023-04-15T09:23:20.369Z,101132.94
2023-04-15T09:24:52.689Z,101125.06
2023-04-15T09:26:57.329Z,101139.88
2023-04-15T09:28:29.504Z,101140.69
2023-04-15T09:30:01.491Z,101143.25
2023-04-15T09:31:34.191Z,101138.00
2023-04-15T09:33:08.905Z,101147.56
2023-04-15T09:34:41.215Z,101142.22
2023-04-15T09:36:13.234Z,101142.31
2023-04-15T09:37:45.357Z,101146.63
2023-04-15T09:39:17.345Z,101145.66
2023-04-15T09:40:49.337Z,101148.19
2023-04-15T09:42:24.796Z,101155.25
2023-04-15T09:43:56.912Z,101147.31
2023-04-15T09:45:29.718Z,101153.41
2023-04-15T09:47:02.458Z,101157.69
2023-04-15T09:48:34.654Z,101161.09
2023-04-15T09:50:07.178Z,101161.00
2023-04-15T09:51:39.232Z,101160.09
2023-04-15T09:53:14.620Z,101168.75
2023-04-15T09:54:46.915Z,101148.50
2023-04-15T09:56:23.137Z,101168.78
2023-04-15T09:57:55.255Z,101167.00
2023-04-15T09:59:27.298Z,101164.28
2023-04-15T10:01:00.793Z,101173.16
2023-04-15T10:02:33.097Z,101171.34
2023-04-15T10:04:06.151Z,101173.34
2023-04-15T10:05:38.856Z,101168.97
2023-04-15T10:07:12.880Z,101169.81
2023-04-15T10:08:44.860Z,101173.41
2023-04-15T10:10:17.862Z,101174.28
2023-04-15T10:11:50.413Z,101174.22
2023-04-15T10:13:24.736Z,101184.69
2023-04-15T10:15:01.923Z,101180.28
2023-04-15T10:16:35.209Z,101170.56
2023-04-15T10:18:08.632Z,101177.44
2023-04-15T10:19:41.003Z,101181.03
2023-04-15T10:21:14.376Z,101188.75
2023-04-15T10:22:47.588Z,101180.00
2023-04-15T10:24:19.831Z,101185.47
2023-04-15T10:25:52.971Z,101181.13
2023-04-15T10:27:24.979Z,101186.34
2023-04-15T10:28:59.587Z,101185.59
2023-04-15T10:30:33.341Z,101194.22
2023-04-15T10:32:05.868Z,101192.31
2023-04-15T10:33:39.469Z,101190.41
2023-04-15T10:35:12.200Z,101199.97
2023-04-15T10:36:44.216Z,101197.31
2023-04-15T10:38:45.578Z,101197.13
2023-04-15T10:40:26.332Z,101187.56
2023-04-15T10:42:14.252Z,101184.72
2023-04-15T10:43:49.324Z,101183.50
2023-04-15T10:45:21.434Z,101185.25
2023-04-15T10:46:53.677Z,101180.75
2023-04-15T10:48:25.746Z,101193.94
2023-04-15T10:50:02.653Z,101191.03
2023-04-15T10:51:39.141Z,101192.53
2023-04-15T10:53:11.751Z,101192.28
2023-04-15T10:54:44.007Z,101189.44
2023-04-15T10:56:17.608Z,101191.25
2023-04-15T10:58:01.128Z,101187.59
2023-04-15T11:00:00.787Z,101186.75
2023-04-15T11:02:02.850Z,101193.31
2023-04-15T11:03:43.232Z,101196.03
2023-04-15T11:05:17.075Z,101196.31
2023-04-15T11:07:06.010Z,101210.50
2023-04-15T11:09:06.355Z,101205.19
2023-04-15T11:10:38.264Z,101203.56
2023-04-15T11:12:10.800Z,101198.25
2023-04-15T11:13:50.660Z,101215.78
2023-04-15T11:15:45.140Z,101209.78
2023-04-15T11:17:29.035Z,101209.31
2023-04-15T11:19:01.899Z,101215.66
2023-04-15T11:20:33.766Z,101223.44
2023-04-15T11:22:10.073Z,101227.84
2023-04-15T11:23:47.111Z,101220.59
2023-04-15T11:25:30.040Z,101217.38
2023-04-15T11:27:02.604Z,101220.72
2023-04-15T11:28:35.804Z,101219.50
2023-04-15T11:30:24.990Z,101220.56
2023-04-15T11:32:06.710Z,101225.13
2023-04-15T11:33:46.230Z,101217.56
2023-04-15T11:35:18.723Z,101236.00
2023-04-15T11:36:52.104Z,101234.34
2023-04-15T11:38:24.006Z,101227.31
2023-04-15T11:39:56.009Z,101228.81
2023-04-15T11:41:27.903Z,101233.13
2023-04-15T11:43:09.703Z,101239.91
2023-04-15T11:44:41.614Z,101228.25
2023-04-15T11:46:13.681Z,101231.72
2023-04-15T11:47:45.675Z,101232.31
2023-04-15T11:49:28.931Z,101240.31
2023-04-15T11:51:06.996Z,101241.97
2023-04-15T11:52:38.924Z,101237.84
2023-04-15T11:54:19.482Z,101241.50
2023-04-15T11:55:53.399Z,101236.13
2023-04-15T11:57:32.169Z,101235.13
2023-04-15T11:59:04.650Z,101238.69
2023-04-15T12:00:36.845Z,101239.56
2023-04-15T12:02:13.738Z,101244.84
2023-04-15T12:03:48.430Z,101249.78
2023-04-15T12:05:20.796Z,101242.69
2023-04-15T12:06:52.818Z,101248.63
2023-04-15T12:08:24.804Z,101250.84
2023-04-15T12:09:57.743Z,101246.59
2023-04-15T12:11:34.086Z,101249.22
2023-04-15T12:13:10.190Z,101247.47
2023-04-15T12:14:42.602Z,101256.22
2023-04-15T12:16:18.425Z,101259.81
2023-04-15T12:17:55.104Z,101255.91
2023-04-15T12:19:37.989Z,101262.63
2023-04-15T12:21:13.566Z,101249.88
2023-04-15T12:22:45.498Z,101253.72
2023-04-15T12:24:21.632Z,101264.34
2023-04-15T12:25:53.610Z,101258.03
2023-04-15T12:27:29.267Z,101263.28
2023-04-15T12:29:03.286Z,101267.47
2023-04-15T12:30:35.271Z,101258.59
2023-04-15T12:32:17.283Z,101260.81
2023-04-15T12:33:50.035Z,101270.63
2023-04-15T12:35:23.217Z,101268.81
2023-04-15T12:36:55.609Z,101278.44
2023-04-15T12:38:27.658Z,101269.84
2023-04-15T12:39:59.662Z,101273.28
2023-04-15T12:41:32.164Z,101263.34
2023-04-15T12:43:04.261Z,101279.34
2023-04-15T12:44:37.668Z,101291.16
2023-04-15T12:46:10.464Z,101282.47
2023-04-15T12:47:42.350Z,101288.56
2023-04-15T12:49:21.164Z,101282.31
2023-04-15T12:50:53.064Z,101278.78
2023-04-15T12:52:25.398Z,101284.44
2023-04-15T12:53:57.865Z,101293.97
2023-04-15T12:55:30.854Z,101293.88
2023-04-15T12:57:06.032Z,101290.81
2023-04-15T12:58:39.100Z,101290.97
2023-04-15T13:00:12.432Z,101298.00
2023-04-15T13:01:44.667Z,101293.97
2023-04-15T13:03:17.083Z,101305.75
2023-04-15T13:04:49.143Z,101309.69
2023-04-15T13:06:21.882Z,101305.00
2023-04-15T13:07:53.843Z,101308.44
2023-04-15T13:09:26.108Z,101312.13
2023-04-15T13:10:58.147Z,101298.13
2023-04-15T13:12:31.430Z,101310.22
2023-04-15T13:14:05.203Z,101308.69
2023-04-15T13:15:37.462Z,101316.91
2023-04-15T13:17:10.558Z,101315.28
2023-04-15T13:18:42.741Z,101316.03
2023-04-15T13:20:15.674Z,101313.38
2023-04-15T13:21:47.574Z,101325.56
2023-04-15T13:23:19.802Z,101321.97
2023-04-15T13:24:51.914Z,101318.59
2023-04-15T13:26:23.877Z,101322.22
2023-04-15T13:27:56.083Z,101325.81
2023-04-15T13:29:28.145Z,101320.84
2023-04-15T13:31:01.016Z,101328.66
2023-04-15T13:32:32.911Z,101329.75
2023-04-15T13:34:05.277Z,101339.63
2023-04-15T13:35:37.424Z,101336.06
2023-04-15T13:37:10.183Z,101359.84
2023-04-15T13:38:42.252Z,101355.44
2023-04-15T13:40:14.337Z,101354.75
2023-04-15T13:41:46.500Z,101359.03
2023-04-15T13:43:18.596Z,101360.06
2023-04-15T13:44:54.150Z,101354.69
2023-04-15T13:46:26.394Z,101350.16
2023-04-15T13:47:58.533Z,101356.97
2023-04-15T13:49:30.726Z,101357.97
2023-04-15T13:51:02.741Z,101361.59
2023-04-15T13:52:34.816Z,101360.81
2023-04-15T13:54:07.024Z,101366.84
2023-04-15T13:55:41.985Z,101375.63
2023-04-15T13:57:13.930Z,101374.75
2023-04-15T13:58:46.251Z,101374.75
2023-04-15T14:00:18.306Z,101370.41
2023-04-15T14:01:50.653Z,101378.22
2023-04-15T14:03:22.971Z,101385.03
2023-04-15T14:04:55.335Z,101381.72
2023-04-15T14:06:29.527Z,101386.03
2023-04-15T14:08:01.581Z,101390.53
2023-04-15T14:11:06.974Z,101401.94
2023-04-15T14:12:39.111Z,101399.22
2023-04-15T14:14:11.355Z,101397.31
2023-04-15T14:15:43.501Z,101401.53
2023-04-15T14:17:15.578Z,101397.75
2023-04-15T14:18:47.547Z,101397.59
2023-04-15T14:20:19.547Z,101388.63
2023-04-15T14:21:51.606Z,101398.09
2023-04-15T14:23:24.207Z,101396.38
2023-04-15T14:24:56.266Z,101389.41
2023-04-15T14:26:28.314Z,101398.94
2023-04-15T14:28:00.287Z,101394.53
2023-04-15T14:29:32.196Z,101392.63
2023-04-15T14:31:04.161Z,101401.53
2023-04-15T14:32:36.520Z,101394.00
2023-04-15T14:34:08.571Z,101404.59
2023-04-15T14:35:40.600Z,101401.19
2023-04-15T14:37:12.614Z,101410.91
2023-04-15T14:38:44.754Z,101409.09
2023-04-15T14:40:17.321Z,101410.22
2023-04-15T14:41:49.796Z,101412.19
2023-04-15T14:43:22.026Z,101404.31
2023-04-15T14:44:54.007Z,101408.75
2023-04-15T14:46:26.791Z,101408.81
2023-04-15T14:47:59.149Z,101420.19
2023-04-15T14:49:31.086Z,101415.72
2023-04-15T14:51:03.261Z,101413.84
2023-04-15T14:52:39.065Z,101414.69
2023-04-15T14:54:11.050Z,101420.84
2023-04-15T14:55:43.851Z,101419.06
2023-04-15T14:57:15.804Z,101436.97
2023-04-15T14:58:48.086Z,101431.03
2023-04-15T15:00:19.955Z,101433.69
2023-04-15T15:01:53.172Z,101443.59
2023-04-15T15:03:25.282Z,101443.69
2023-04-15T15:04:58.229Z,101443.63
2023-04-15T15:06:30.214Z,101442.78
2023-04-15T15:08:02.086Z,101431.25
2023-04-15T15:09:35.087Z,101433.81
2023-04-15T15:11:07.104Z,101447.03
2023-04-15T15:12:39.039Z,101447.13
2023-04-15T15:14:11.328Z,101448.16
2023-04-15T15:15:43.398Z,101450.78
2023-04-15T15:17:15.748Z,101459.41
2023-04-15T15:18:47.765Z,101455.88
2023-04-15T15:20:19.739Z,101457.59
2023-04-15T15:21:51.686Z,101458.44
2023-04-15T15:23:23.654Z,101454.00
2023-04-15T15:24:55.603Z,101452.16
2023-04-15T15:26:30.396Z,101456.53
2023-04-15T15:28:02.446Z,101453.91
2023-04-15T15:29:34.422Z,101456.44
2023-04-15T15:31:06.493Z,101456.38
2023-04-15T15:32:41.762Z,101472.03
2023-04-15T15:34:13.763Z,101469.34
2023-04-15T15:35:45.731Z,101465.97
2023-04-15T15:37:18.313Z,101468.56
2023-04-15T15:38:50.645Z,101469.50
2023-04-15T15:40:22.655Z,101479.28
2023-04-15T15:41:54.921Z,101475.19
2023-04-15T15:43:26.807Z,101474.41
2023-04-15T15:44:58.919Z,101478.00
2023-04-15T15:46:31.721Z,101477.13
2023-04-15T15:48:03.616Z,101484.06
2023-04-15T15:49:35.736Z,101481.53
2023-04-15T15:51:07.901Z,101492.09
2023-04-15T15:52:40.064Z,101489.59
2023-04-15T15:54:11.978Z,101500.22
2023-04-15T15:55:44.272Z,101494.94
2023-04-15T15:57:19.220Z,101504.66
2023-04-15T15:58:51.274Z,101493.19
2023-04-15T16:00:23.462Z,101507.25
2023-04-15T16:01:55.626Z,101506.47
2023-04-15T16:03:27.798Z,101508.34
2023-04-15T16:05:00.110Z,101517.13
2023-04-15T16:06:34.462Z,101523.25
2023-04-15T16:08:07.310Z,101525.09
2023-04-15T16:09:41.330Z,101533.03
2023-04-15T16:11:13.299Z,101538.31
2023-04-15T16:12:45.150Z,101538.34
2023-04-15T16:14:17.076Z,101546.22
2023-04-15T16:15:52.432Z,101538.41
2023-04-15T16:17:24.428Z,101549.00
2023-04-15T16:18:57.814Z,101549.88
2023-04-15T16:20:29.795Z,101547.31
2023-04-15T16:22:02.071Z,101554.31
2023-04-15T16:23:34.089Z,101542.13
2023-04-15T16:25:06.515Z,101550.84
2023-04-15T16:26:38.434Z,101563.09
2023-04-15T16:28:23.036Z,101563.09
2023-04-15T16:29:57.339Z,101567.41
2023-04-15T16:31:29.428Z,101563.06
2023-04-15T16:33:01.553Z,101565.63
2023-04-15T16:34:33.607Z,101576.13
2023-04-15T16:36:06.729Z,101577.03
2023-04-15T16:37:38.627Z,101578.84
2023-04-15T16:39:10.543Z,101577.13
2023-04-15T16:40:42.715Z,101578.00
2023-04-15T16:42:14.616Z,101584.13
2023-04-15T16:43:46.712Z,101586.78
2023-04-15T16:45:18.913Z,101588.53
2023-04-15T16:46:51.256Z,101592.91
2023-04-15T16:48:23.159Z,101589.41
2023-04-15T16:49:55.035Z,101590.28
2023-04-15T16:51:27.558Z,101591.16
2023-04-15T16:52:59.457Z,101590.28
2023-04-15T16:54:32.960Z,101601.63
2023-04-15T16:56:05.084Z,101595.56
2023-04-15T16:58:02.618Z,101614.78
2023-04-15T16:59:28.898Z,101612.16
2023-04-15T17:01:01.484Z,101613.06
2023-04-15T17:02:33.646Z,101605.19
2023-04-15T17:04:05.937Z,101612.19
2023-04-15T17:05:38.430Z,101618.34
2023-04-15T17:07:10.899Z,101612.22
2023-04-15T17:08:44.378Z,101622.72
2023-04-15T17:10:17.600Z,101626.22
2023-04-15T17:11:49.640Z,101629.72
2023-04-15T17:13:21.545Z,101620.97
2023-04-15T17:14:53.484Z,101634.06
2023-04-15T17:16:25.726Z,101638.44
2023-04-15T17:17:57.801Z,101629.69
2023-04-15T17:19:29.812Z,101629.72
2023-04-15T17:21:01.769Z,101640.19
2023-04-15T17:22:33.939Z,101636.69
2023-04-15T17:24:06.644Z,101645.41
2023-04-15T17:25:38.558Z,101639.31
2023-04-15T17:27:10.772Z,101638.44
2023-04-15T17:28:42.721Z,101640.16
2023-04-15T17:30:14.660Z,101645.41
2023-04-15T17:31:46.701Z,101654.19
2023-04-15T17:33:55.562Z,101648.94
2023-04-15T17:35:10.753Z,101645.44
2023-04-15T17:36:42.994Z,101648.91
2023-04-15T17:38:14.898Z,101648.03
2023-04-15T17:39:46.848Z,101655.03
2023-04-15T17:41:18.820Z,101652.41
2023-04-15T17:42:50.810Z,101651.53
2023-04-15T17:44:24.624Z,101652.41
2023-04-15T17:45:58.541Z,101662.88